createdAt,value
2023-03-12T00:01:42.635Z,6.18
2023-03-12T00:04:09.367Z,6.53
2023-03-12T00:06:36.904Z,6.32
2023-03-12T00:09:04.797Z,6.55
2023-03-12T00:11:31.609Z,7.38
2023-03-12T00:13:58.967Z,6.40
2023-03-12T00:16:25.975Z,6.50
2023-03-12T00:18:53.986Z,7.72
2023-03-12T00:21:21.985Z,6.78
2023-03-12T00:23:49.153Z,6.40
2023-03-12T00:26:16.285Z,7.05
2023-03-12T00:28:43.017Z,6.43
2023-03-12T00:31:18.747Z,6.93
2023-03-12T00:33:45.935Z,6.47
2023-03-12T00:36:12.711Z,6.57
2023-03-12T00:38:39.441Z,5.50
2023-03-12T00:41:06.149Z,6.30
2023-03-12T00:43:32.850Z,5.68
2023-03-12T00:45:59.594Z,7.00
2023-03-12T00:48:26.328Z,5.88
2023-03-12T00:50:53.000Z,6.72
2023-03-12T00:53:19.711Z,5.97
2023-03-12T00:55:46.706Z,6.25
2023-03-12T00:58:13.423Z,6.13
2023-03-12T01:00:40.170Z,6.13
2023-03-12T01:03:06.844Z,6.85
2023-03-12T01:05:37.832Z,7.10
2023-03-12T01:08:08.898Z,6.75
2023-03-12T01:10:36.845Z,6.40
2023-03-12T01:13:03.751Z,6.70
2023-03-12T01:15:30.434Z,6.57
2023-03-12T01:17:57.128Z,6.50
2023-03-12T01:20:26.978Z,6.45
2023-03-12T01:22:53.679Z,6.78
2023-03-12T01:25:20.495Z,5.97
2023-03-12T01:27:47.169Z,5.25
2023-03-12T01:30:14.208Z,6.03
2023-03-12T01:32:41.002Z,5.25
2023-03-12T01:35:08.094Z,6.07
2023-03-12T01:37:34.842Z,5.50
2023-03-12T01:40:01.545Z,5.32
2023-03-12T01:42:28.280Z,5.20
2023-03-12T01:45:01.540Z,5.47
2023-03-12T01:47:31.949Z,5.45
2023-03-12T01:49:58.986Z,6.15
2023-03-12T01:52:33.899Z,6.07
2023-03-12T01:55:06.723Z,5.90
2023-03-12T01:57:42.192Z,5.05
2023-03-12T02:00:13.944Z,5.97
2023-03-12T02:02:40.815Z,6.55
2023-03-12T02:05:35.078Z,5.50
2023-03-12T02:08:02.028Z,4.90
2023-03-12T02:10:28.873Z,5.80
2023-03-12T02:12:55.562Z,5.63
2023-03-12T02:15:22.442Z,5.18
2023-03-12T02:17:49.052Z,5.55
2023-03-12T02:20:16.376Z,5.22
2023-03-12T02:22:45.464Z,5.75
2023-03-12T02:25:31.675Z,5.18
2023-03-12T02:27:59.355Z,6.00
2023-03-12T02:30:27.266Z,5.35
2023-03-12T02:32:54.117Z,4.85
2023-03-12T02:35:20.894Z,5.18
2023-03-12T02:37:52.637Z,5.70
2023-03-12T02:40:28.202Z,5.80
2023-03-12T02:42:54.935Z,5.15
2023-03-12T02:45:21.652Z,6.18
2023-03-12T02:47:48.327Z,5.53
2023-03-12T02:50:15.705Z,5.85
2023-03-12T02:52:42.366Z,6.30
2023-03-12T02:55:09.531Z,5.85
2023-03-12T02:57:38.932Z,5.20
2023-03-12T03:00:12.589Z,5.75
2023-03-12T03:02:40.241Z,5.63
2023-03-12T03:05:07.503Z,5.88
2023-03-12T03:07:34.219Z,5.90
2023-03-12T03:10:04.295Z,5.55
2023-03-12T03:12:32.033Z,5.47
2023-03-12T03:14:58.868Z,5.78
2023-03-12T03:17:25.843Z,5.75
2023-03-12T03:19:52.761Z,5.20
2023-03-12T03:22:20.421Z,6.43
2023-03-12T03:24:47.089Z,4.88
2023-03-12T03:27:14.216Z,5.78
2023-03-12T03:29:41.204Z,5.30
2023-03-12T03:32:08.038Z,5.57
2023-03-12T03:34:34.767Z,5.13
2023-03-12T03:37:01.423Z,5.30
2023-03-12T03:39:29.471Z,4.82
2023-03-12T03:41:56.108Z,5.30
2023-03-12T03:44:23.208Z,5.60
2023-03-12T03:46:50.056Z,5.85
2023-03-12T03:49:17.115Z,5.07
2023-03-12T03:51:43.870Z,5.57
2023-03-12T03:54:11.010Z,5.22
2023-03-12T03:56:37.711Z,5.15
2023-03-12T03:59:04.688Z,5.57
2023-03-12T04:01:34.242Z,5.00
2023-03-12T04:04:00.919Z,5.13
2023-03-12T04:06:27.831Z,4.93
2023-03-12T04:08:54.481Z,4.90
2023-03-12T04:11:21.876Z,4.90
2023-03-12T04:13:49.310Z,5.05
2023-03-12T04:16:16.649Z,5.15
2023-03-12T04:18:43.694Z,5.85
2023-03-12T04:21:11.382Z,4.82
2023-03-12T04:23:38.490Z,5.00
2023-03-12T04:26:06.141Z,5.05
2023-03-12T04:28:32.987Z,5.65
2023-03-12T04:31:01.536Z,5.07
2023-03-12T04:33:29.920Z,4.93
2023-03-12T04:35:57.000Z,4.30
2023-03-12T04:38:24.734Z,4.80
2023-03-12T04:41:08.427Z,4.65
2023-03-12T04:43:35.508Z,4.88
2023-03-12T04:46:02.750Z,3.97
2023-03-12T04:48:29.411Z,4.78
2023-03-12T04:50:56.118Z,4.47
2023-03-12T04:53:23.154Z,4.38
2023-03-12T04:55:50.277Z,4.00
2023-03-12T04:58:17.522Z,4.88
2023-03-12T05:00:44.617Z,4.85
2023-03-12T05:03:12.448Z,4.20
2023-03-12T05:05:39.133Z,4.15
2023-03-12T05:08:06.030Z,4.75
2023-03-12T05:10:32.816Z,4.07
2023-03-12T05:12:59.589Z,4.00
2023-03-12T05:15:26.645Z,4.60
2023-03-12T05:17:54.834Z,4.88
2023-03-12T05:20:21.850Z,4.30
2023-03-12T05:22:48.526Z,4.32
2023-03-12T05:25:15.309Z,3.97
2023-03-12T05:27:41.985Z,3.97
2023-03-12T05:30:09.860Z,3.85
2023-03-12T05:32:36.564Z,4.65
2023-03-12T05:35:03.952Z,4.18
2023-03-12T05:37:30.964Z,3.72
2023-03-12T05:39:57.722Z,4.03
2023-03-12T05:42:24.800Z,3.85
2023-03-12T05:44:51.689Z,4.28
2023-03-12T05:47:19.101Z,3.83
2023-03-12T05:49:45.970Z,3.53
2023-03-12T05:52:12.764Z,3.63
2023-03-12T05:54:39.531Z,3.83
2023-03-12T05:57:06.654Z,3.67
2023-03-12T05:59:33.411Z,3.50
2023-03-12T06:02:03.297Z,3.08
2023-03-12T06:04:30.148Z,3.83
2023-03-12T06:06:56.808Z,3.83
2023-03-12T06:09:26.581Z,3.17
2023-03-12T06:11:53.300Z,3.67
2023-03-12T06:14:19.929Z,3.63
2023-03-12T06:16:47.025Z,4.05
2023-03-12T06:19:14.530Z,4.40
2023-03-12T06:21:42.974Z,3.78
2023-03-12T06:24:13.115Z,3.80
2023-03-12T06:26:40.566Z,3.55
2023-03-12T06:29:07.631Z,4.05
2023-03-12T06:31:37.261Z,4.10
2023-03-12T06:34:05.869Z,3.58
2023-03-12T06:36:32.660Z,4.32
2023-03-12T06:38:59.470Z,4.35
2023-03-12T06:41:26.259Z,4.75
2023-03-12T06:43:53.310Z,4.40
2023-03-12T06:46:25.773Z,4.28
2023-03-12T06:48:52.476Z,4.85
2023-03-12T06:51:19.175Z,5.57
2023-03-12T06:53:46.036Z,8.05
2023-03-12T06:56:13.379Z,6.40
2023-03-12T06:58:40.073Z,4.63
2023-03-12T07:01:06.939Z,3.92
2023-03-12T07:03:33.668Z,4.05
2023-03-12T07:06:00.651Z,3.90
2023-03-12T07:08:31.070Z,3.90
2023-03-12T07:11:01.216Z,4.22
2023-03-12T07:13:28.247Z,4.22
2023-03-12T07:15:55.355Z,4.28
2023-03-12T07:18:22.097Z,8.20
2023-03-12T07:20:48.817Z,8.60
2023-03-12T07:23:16.363Z,6.78
2023-03-12T07:25:43.744Z,5.20
2023-03-12T07:28:11.330Z,19.80
2023-03-12T07:30:38.218Z,8.25
2023-03-12T07:33:07.371Z,6.18
2023-03-12T07:35:34.478Z,5.18
2023-03-12T07:38:01.766Z,5.20
2023-03-12T07:40:28.888Z,4.65
2023-03-12T07:42:55.563Z,3.92
2023-03-12T07:45:22.413Z,5.45
2023-03-12T07:47:49.736Z,5.47
2023-03-12T07:50:17.491Z,4.75
2023-03-12T07:52:44.864Z,4.55
2023-03-12T07:55:11.801Z,4.60
2023-03-12T07:57:38.947Z,5.65
2023-03-12T08:00:10.614Z,5.82
2023-03-12T08:02:37.701Z,5.15
2023-03-12T08:05:05.147Z,5.15
2023-03-12T08:07:35.397Z,4.38
2023-03-12T08:10:04.048Z,4.20
2023-03-12T08:12:30.932Z,4.63
2023-03-12T08:14:57.644Z,6.00
2023-03-12T08:17:24.363Z,6.03
2023-03-12T08:19:51.250Z,4.82
2023-03-12T08:22:18.142Z,5.43
2023-03-12T08:24:44.773Z,4.05
2023-03-12T08:27:12.487Z,4.32
2023-03-12T08:29:40.113Z,4.55
2023-03-12T08:32:07.623Z,5.22
2023-03-12T08:34:35.033Z,4.15
2023-03-12T08:37:06.028Z,4.68
2023-03-12T08:39:33.021Z,3.90
2023-03-12T08:41:59.944Z,4.40
2023-03-12T08:44:27.025Z,4.60
2023-03-12T08:46:53.948Z,4.60
2023-03-12T08:49:21.137Z,4.50
2023-03-12T08:51:47.878Z,5.10
2023-03-12T08:54:14.840Z,5.63
2023-03-12T08:56:44.666Z,5.07
2023-03-12T08:59:11.828Z,4.60
2023-03-12T09:01:39.815Z,4.63
2023-03-12T09:04:07.347Z,4.25
2023-03-12T09:06:35.540Z,8.73
2023-03-12T09:09:05.169Z,7.80
2023-03-12T09:11:34.762Z,6.22
2023-03-12T09:14:42.424Z,6.47
2023-03-12T09:16:49.407Z,6.63
2023-03-12T09:19:16.351Z,6.40
2023-03-12T09:21:43.205Z,5.63
2023-03-12T09:24:10.389Z,5.03
2023-03-12T09:26:37.253Z,5.13
2023-03-12T09:29:04.108Z,5.78
2023-03-12T09:31:30.868Z,5.90
2023-03-12T09:33:57.578Z,5.13
2023-03-12T09:36:24.467Z,5.88
2023-03-12T09:38:51.222Z,5.68
2023-03-12T09:41:20.437Z,5.38
2023-03-12T09:44:12.398Z,4.47
2023-03-12T09:47:01.309Z,5.20
2023-03-12T09:49:49.016Z,5.30
2023-03-12T09:52:19.344Z,5.00
2023-03-12T09:54:52.293Z,5.07
2023-03-12T09:57:23.929Z,5.05
2023-03-12T09:59:51.341Z,5.28
2023-03-12T10:02:43.299Z,5.38
2023-03-12T10:05:14.469Z,4.88
2023-03-12T10:07:52.921Z,5.38
2023-03-12T10:10:23.240Z,6.32
2023-03-12T10:13:12.475Z,4.85
2023-03-12T10:15:57.772Z,5.20
2023-03-12T10:19:04.275Z,6.07
2023-03-12T10:21:58.460Z,5.15
2023-03-12T10:24:41.419Z,4.55
2023-03-12T10:27:12.948Z,5.20
2023-03-12T10:29:44.402Z,4.68
2023-03-12T10:32:16.644Z,4.75
2023-03-12T10:34:49.440Z,4.80
2023-03-12T10:37:34.958Z,4.55
2023-03-12T10:40:02.502Z,4.22
2023-03-12T10:42:30.053Z,4.20
2023-03-12T10:45:16.329Z,4.43
2023-03-12T10:47:44.681Z,4.38
2023-03-12T10:50:21.683Z,3.28
2023-03-12T10:52:50.920Z,4.43
2023-03-12T10:55:24.592Z,4.78
2023-03-12T10:57:53.146Z,4.20
2023-03-12T11:00:32.274Z,4.50
2023-03-12T11:03:06.059Z,4.72
2023-03-12T11:05:37.801Z,4.65
2023-03-12T11:08:04.779Z,4.68
2023-03-12T11:10:44.749Z,4.68
2023-03-12T11:13:29.997Z,3.97
2023-03-12T11:16:01.613Z,4.18
2023-03-12T11:18:32.729Z,3.92
2023-03-12T11:21:11.706Z,3.80
2023-03-12T11:23:40.998Z,3.28
2023-03-12T11:26:23.992Z,3.20
2023-03-12T11:28:53.123Z,2.97
2023-03-12T11:31:27.039Z,2.67
2023-03-12T11:34:03.817Z,2.58
2023-03-12T11:36:45.704Z,2.50
2023-03-12T11:39:26.671Z,2.00
2023-03-12T11:42:08.288Z,2.35
2023-03-12T11:44:50.400Z,2.13
2023-03-12T11:47:24.288Z,1.15
2023-03-12T11:50:06.510Z,1.40
2023-03-12T11:52:45.434Z,1.40
2023-03-12T11:55:49.801Z,1.35
2023-03-12T11:58:42.994Z,1.20
2023-03-12T12:01:39.670Z,3.50
2023-03-12T12:04:31.287Z,4.05
2023-03-12T12:07:00.998Z,2.15
2023-03-12T12:09:57.743Z,1.10
2023-03-12T12:12:46.163Z,1.90
2023-03-12T12:15:45.092Z,2.92
2023-03-12T12:18:17.896Z,1.20
2023-03-12T12:20:47.274Z,1.40
2023-03-12T12:23:23.209Z,1.45
2023-03-12T12:26:02.189Z,1.40
2023-03-12T12:28:31.936Z,1.52
2023-03-12T12:31:07.697Z,2.47
2023-03-12T12:33:42.441Z,1.55
2023-03-12T12:36:10.683Z,0.75
2023-03-12T12:38:46.691Z,1.05
2023-03-12T12:41:21.776Z,1.35
2023-03-12T12:43:51.666Z,1.35
2023-03-12T12:46:46.490Z,2.38
2023-03-12T12:49:20.303Z,1.67
2023-03-12T12:52:04.285Z,1.08
2023-03-12T12:54:57.732Z,1.33
2023-03-12T13:00:40.940Z,1.63
2023-03-12T13:03:30.680Z,1.88
2023-03-12T13:05:59.996Z,1.70
2023-03-12T13:08:44.897Z,1.58
2023-03-12T13:11:19.515Z,1.63
2023-03-12T13:13:58.597Z,1.00
2023-03-12T13:16:44.690Z,1.30
2023-03-12T13:19:16.557Z,1.17
2023-03-12T13:22:05.178Z,2.40
2023-03-12T13:24:41.051Z,1.70
2023-03-12T13:27:21.177Z,1.60
2023-03-12T13:29:51.542Z,1.60
2023-03-12T13:32:38.531Z,1.50
2023-03-12T13:35:11.962Z,1.60
2023-03-12T13:38:00.454Z,1.27
2023-03-12T13:40:30.169Z,1.48
2023-03-12T13:43:31.293Z,1.40
2023-03-12T13:46:07.107Z,2.58
2023-03-12T13:48:35.073Z,2.63
2023-03-12T13:51:15.455Z,2.22
2023-03-12T13:53:42.384Z,1.13
2023-03-12T13:56:14.476Z,2.63
2023-03-12T13:59:08.067Z,2.77
2023-03-12T14:01:41.453Z,2.30
2023-03-12T14:04:12.983Z,1.35
2023-03-12T14:07:07.455Z,2.58
2023-03-12T14:09:46.826Z,1.58
2023-03-12T14:12:38.248Z,1.90
2023-03-12T14:15:11.266Z,1.85
2023-03-12T14:20:17.476Z,1.48
2023-03-12T14:22:45.832Z,1.70
2023-03-12T14:25:33.539Z,1.60
2023-03-12T14:28:01.277Z,2.70
2023-03-12T14:30:36.919Z,1.60
2023-03-12T14:33:03.938Z,1.10
2023-03-12T14:35:37.615Z,1.48
2023-03-12T14:38:12.009Z,2.28
2023-03-12T14:40:44.353Z,1.63
2023-03-12T14:43:34.945Z,1.35
2023-03-12T14:46:07.185Z,1.42
2023-03-12T14:48:36.003Z,2.13
2023-03-12T14:51:05.735Z,1.33
2023-03-12T14:53:34.516Z,1.40
2023-03-12T14:56:21.161Z,2.65
2023-03-12T14:58:49.278Z,2.08
2023-03-12T15:01:27.266Z,1.35
2023-03-12T15:04:02.125Z,1.10
2023-03-12T15:06:34.332Z,1.52
2023-03-12T15:09:04.414Z,1.30
2023-03-12T15:11:32.407Z,1.58
2023-03-12T15:14:03.953Z,1.98
2023-03-12T15:16:30.767Z,1.05
2023-03-12T15:18:57.493Z,1.40
2023-03-12T15:21:24.231Z,1.60
2023-03-12T15:23:50.970Z,1.45
2023-03-12T15:26:20.730Z,1.92
2023-03-12T15:29:26.458Z,1.70
2023-03-12T15:31:55.788Z,1.65
2023-03-12T15:34:37.137Z,1.58
2023-03-12T15:37:41.371Z,1.30
2023-03-12T15:40:23.643Z,1.45
2023-03-12T15:42:50.714Z,1.15
2023-03-12T15:45:23.407Z,1.30
2023-03-12T15:47:50.999Z,1.17
2023-03-12T15:50:23.079Z,1.60
2023-03-12T15:53:07.733Z,1.23
2023-03-12T15:55:35.530Z,1.30
2023-03-12T15:58:02.759Z,1.33
2023-03-12T16:00:42.784Z,1.45
2023-03-12T16:03:16.894Z,1.58
2023-03-12T16:05:43.830Z,3.65
2023-03-12T16:08:21.670Z,1.58
2023-03-12T16:10:50.362Z,1.90
2023-03-12T16:13:19.959Z,1.92
2023-03-12T16:15:48.543Z,1.65
2023-03-12T16:18:17.034Z,1.70
2023-03-12T16:20:45.024Z,1.63
2023-03-12T16:23:12.677Z,1.50
2023-03-12T16:25:40.257Z,1.42
2023-03-12T16:28:08.073Z,1.20
2023-03-12T16:30:36.631Z,1.65
2023-03-12T16:33:08.764Z,1.92
2023-03-12T16:35:36.181Z,1.73
2023-03-12T16:38:03.433Z,1.35
2023-03-12T16:40:33.894Z,2.60
2023-03-12T16:43:03.668Z,2.03
2023-03-12T16:45:31.502Z,2.25
2023-03-12T16:48:00.435Z,1.50
2023-03-12T16:50:27.316Z,2.38
2023-03-12T16:52:54.094Z,2.38
2023-03-12T16:55:22.836Z,1.80
2023-03-12T16:57:55.465Z,2.42
2023-03-12T17:00:24.956Z,1.85
2023-03-12T17:02:55.393Z,2.17
2023-03-12T17:05:22.186Z,1.77
2023-03-12T17:07:50.210Z,1.65
2023-03-12T17:10:17.318Z,1.65
2023-03-12T17:12:45.200Z,2.00
2023-03-12T17:15:25.945Z,2.33
2023-03-12T17:17:53.137Z,1.70
2023-03-12T17:20:21.600Z,1.73
2023-03-12T17:22:49.055Z,1.77
2023-03-12T17:25:25.130Z,1.67
2023-03-12T17:27:52.131Z,2.30
2023-03-12T17:30:19.440Z,1.50
2023-03-12T17:32:46.378Z,1.67
2023-03-12T17:35:13.308Z,1.58
2023-03-12T17:37:40.271Z,1.50
2023-03-12T17:40:08.177Z,2.60
2023-03-12T17:42:38.543Z,4.43
2023-03-12T17:45:06.712Z,2.70
2023-03-12T17:47:33.540Z,2.00
2023-03-12T17:50:00.235Z,2.55
2023-03-12T17:52:27.062Z,2.75
2023-03-12T17:54:53.826Z,2.60
2023-03-12T17:57:20.535Z,2.30
2023-03-12T17:59:47.249Z,3.38
2023-03-12T18:02:17.175Z,2.30
2023-03-12T18:04:44.053Z,3.15
2023-03-12T18:07:10.859Z,2.67
2023-03-12T18:09:37.527Z,2.75
2023-03-12T18:12:05.561Z,2.63
2023-03-12T18:14:32.439Z,2.53
2023-03-12T18:17:01.815Z,2.33
2023-03-12T18:19:29.444Z,4.13
2023-03-12T18:21:56.273Z,4.53
2023-03-12T18:24:23.042Z,5.25
2023-03-12T18:26:51.737Z,3.75
2023-03-12T18:29:18.565Z,3.47
2023-03-12T18:31:45.329Z,3.47
2023-03-12T18:34:12.217Z,3.28
2023-03-12T18:36:38.937Z,2.85
2023-03-12T18:39:06.665Z,2.90
2023-03-12T18:41:33.650Z,3.67
2023-03-12T18:44:00.553Z,3.63
2023-03-12T18:46:28.090Z,4.15
2023-03-12T18:48:55.024Z,4.20
2023-03-12T18:51:21.798Z,3.22
2023-03-12T18:53:51.442Z,2.50
2023-03-12T18:56:18.198Z,5.85
2023-03-12T18:58:44.892Z,8.07
2023-03-12T19:01:13.643Z,10.68
2023-03-12T19:03:40.351Z,3.85
2023-03-12T19:06:12.359Z,2.50
2023-03-12T19:08:39.520Z,2.50
2023-03-12T19:11:11.305Z,3.42
2023-03-12T19:13:38.129Z,2.95
2023-03-12T19:16:08.770Z,6.15
2023-03-12T19:18:36.665Z,3.75
2023-03-12T19:21:03.904Z,3.88
2023-03-12T19:23:30.716Z,4.20
2023-03-12T19:25:57.547Z,3.35
2023-03-12T19:28:24.262Z,3.20
2023-03-12T19:30:51.133Z,2.70
2023-03-12T19:33:17.904Z,2.38
2023-03-12T19:35:44.803Z,2.78
2023-03-12T19:38:11.596Z,3.20
2023-03-12T19:40:38.424Z,3.03
2023-03-12T19:43:05.171Z,3.03
2023-03-12T19:45:31.830Z,2.35
2023-03-12T19:47:58.536Z,2.35
2023-03-12T19:50:25.288Z,1.70
2023-03-12T19:52:51.997Z,2.13
2023-03-12T19:55:18.709Z,2.28
2023-03-12T19:57:46.032Z,2.78
2023-03-12T20:00:13.339Z,2.25
2023-03-12T20:02:40.401Z,2.70
2023-03-12T20:05:07.860Z,2.65
2023-03-12T20:07:34.898Z,3.05
2023-03-12T20:10:01.776Z,3.40
2023-03-12T20:12:28.744Z,7.82
2023-03-12T20:14:55.422Z,5.40
2023-03-12T20:17:22.415Z,4.82
2023-03-12T20:19:49.229Z,3.55
2023-03-12T20:22:16.075Z,3.03
2023-03-12T20:24:43.981Z,3.30
2023-03-12T20:27:11.218Z,3.80
2023-03-12T20:29:38.032Z,3.05
2023-03-12T20:32:05.133Z,2.85
2023-03-12T20:34:32.063Z,3.13
2023-03-12T20:36:59.063Z,2.88
2023-03-12T20:39:25.794Z,2.70
2023-03-12T20:41:52.577Z,2.28
2023-03-12T20:44:19.282Z,2.75
2023-03-12T20:46:47.186Z,2.53
2023-03-12T20:49:14.552Z,2.25
2023-03-12T20:51:42.975Z,2.40
2023-03-12T20:54:09.820Z,2.13
2023-03-12T20:56:36.600Z,3.08
2023-03-12T20:59:03.379Z,2.83
2023-03-12T21:01:30.478Z,2.65
2023-03-12T21:03:58.214Z,2.00
2023-03-12T21:06:25.154Z,2.67
2023-03-12T21:08:51.866Z,2.42
2023-03-12T21:11:18.555Z,2.42
2023-03-12T21:13:46.092Z,2.67
2023-03-12T21:16:12.979Z,2.58
2023-03-12T21:18:39.937Z,2.28
2023-03-12T21:21:08.081Z,2.00
2023-03-12T21:23:35.258Z,2.45
2023-03-12T21:26:07.171Z,2.25
2023-03-12T21:28:35.396Z,1.67
2023-03-12T21:31:07.252Z,2.00
2023-03-12T21:33:34.096Z,2.65
2023-03-12T21:36:00.962Z,1.83
2023-03-12T21:38:27.662Z,1.90
2023-03-12T21:40:54.427Z,2.50
2023-03-12T21:43:21.217Z,2.03
2023-03-12T21:45:47.989Z,2.65
2023-03-12T21:48:14.730Z,2.13
2023-03-12T21:50:41.350Z,2.17
2023-03-12T21:53:22.759Z,2.97
2023-03-12T21:55:57.198Z,2.42
2023-03-12T21:58:23.925Z,2.20
2023-03-12T22:00:50.617Z,2.60
2023-03-12T22:03:17.452Z,2.22
2023-03-12T22:05:49.889Z,1.80
2023-03-12T22:08:16.664Z,2.33
2023-03-12T22:10:45.150Z,2.58
2023-03-12T22:13:11.964Z,2.63
2023-03-12T22:15:39.101Z,2.30
2023-03-12T22:18:05.817Z,3.42
2023-03-12T22:20:36.274Z,2.83
2023-03-12T22:23:02.979Z,5.18
2023-03-12T22:25:30.241Z,2.40
2023-03-12T22:27:56.928Z,2.22
2023-03-12T22:30:23.663Z,3.08
2023-03-12T22:32:50.388Z,2.67
2023-03-12T22:35:17.126Z,2.53
2023-03-12T22:37:45.223Z,2.70
2023-03-12T22:40:12.376Z,2.72
2023-03-12T22:42:41.974Z,2.90
2023-03-12T22:45:09.369Z,2.65
2023-03-12T22:47:36.035Z,2.35
2023-03-12T22:50:02.697Z,2.50
2023-03-12T22:52:29.410Z,2.67
2023-03-12T22:54:56.051Z,2.35
2023-03-12T22:57:22.721Z,2.67
2023-03-12T22:59:49.374Z,2.78
2023-03-12T23:02:16.242Z,2.72
2023-03-12T23:04:43.038Z,4.03
2023-03-12T23:07:14.579Z,4.68
2023-03-12T23:09:43.424Z,3.70
2023-03-12T23:12:10.195Z,3.78
2023-03-12T23:14:36.869Z,3.28
2023-03-12T23:17:03.636Z,3.08
2023-03-12T23:19:33.997Z,3.33
2023-03-12T23:22:01.080Z,2.92
2023-03-12T23:24:30.694Z,3.60
2023-03-12T23:26:57.437Z,5.68
2023-03-12T23:29:24.175Z,4.70
2023-03-12T23:31:51.019Z,5.30
2023-03-12T23:34:17.956Z,4.63
2023-03-12T23:36:46.160Z,3.63
2023-03-12T23:39:13.029Z,2.80
2023-03-12T23:41:39.750Z,2.58
2023-03-12T23:44:06.474Z,2.53
2023-03-12T23:46:33.138Z,3.05
2023-03-12T23:48:59.990Z,3.03
2023-03-12T23:51:28.987Z,3.45
2023-03-12T23:53:57.827Z,3.28
2023-03-12T23:56:27.166Z,3.92
2023-03-12T23:58:54.397Z,3.85
